Terminal Aerodrome Forecast
Issued by NWS

Home | Current Version | Previous Version | Text Only | Print | Product List | Glossary On
Versions: 1 2 3 4 5 6 7 8 9 10 11 12 13 14 15 16 17 18 19 20 21 22 23 24 25
000
FTUS45 KTWC 040534
TAFOLS
TAF
KOLS 040534Z 0406/0506 VRB05KT P6SM FEW100 BKN300
     FM040800 VRB06KT P6SM VCSH BKN100 BKN250
     FM041500 20005KT P6SM SCT090 BKN300
     FM042000 28007KT P6SM VCTS BKN090CB BKN150
     FM050000 23008KT P6SM VCSH BKN090 BKN200
     FM050300 VRB06KT P6SM SCT100 BKN300=

USA.gov is the U.S. government's official web portal to all federal, state and local government web resources and services.